Time;durP1;ratioP1;P1;durP2;ratioP2;P2;SDS_P1;SDS_P2;PMS_P1;PMS_P2;Temp;Humidity;BMP_temperature;BMP_pressure;BME280_temperature;BME280_humidity;BME280_pressure;Samples;Min_cycle;Max_cycle;Signal;HPM_P1;HPM_P2
2021/08/25 00:02:47;;;;;;;4.18;2.50;;;;;;;16.53;62.28;100955.44;10380629;28;20140;-56
2021/08/25 00:07:49;;;;;;;3.08;2.25;;;;;;;16.57;62.67;100968.47;10396375;28;20586;-56
2021/08/25 00:12:51;;;;;;;6.70;2.40;;;;;;;16.53;62.77;100964.34;10381239;28;20128;-56
2021/08/25 00:17:53;;;;;;;4.22;2.25;;;;;;;16.50;62.31;100964.66;10381319;28;20067;-56
2021/08/25 00:22:54;;;;;;;4.03;2.88;;;;;;;16.32;63.20;100967.22;10379982;28;20076;-57
2021/08/25 00:27:56;;;;;;;2.78;2.03;;;;;;;16.35;63.03;100964.25;10375678;28;20550;-57
2021/08/25 00:32:58;;;;;;;4.22;2.70;;;;;;;16.28;63.41;100940.81;10375271;28;20132;-57
2021/08/25 00:37:59;;;;;;;3.33;2.30;;;;;;;16.28;63.30;100940.81;10378507;28;20601;-57
2021/08/25 00:43:08;;;;;;;4.32;3.10;;;;;;;16.26;63.26;100944.47;10394929;28;20517;-56
2021/08/25 00:48:15;;;;;;;4.35;2.47;;;;;;;16.07;63.26;100941.81;10373070;28;20626;-57
2021/08/25 00:53:18;;;;;;;3.30;2.40;;;;;;;16.03;63.43;100945.75;10378940;28;20120;-57
2021/08/25 00:58:20;;;;;;;3.10;2.55;;;;;;;16.09;63.65;100947.88;10385299;28;20045;-57
2021/08/25 01:03:31;;;;;;;4.03;2.40;;;;;;;16.11;63.53;100940.53;10396882;28;20132;-57
2021/08/25 01:08:33;;;;;;;3.42;2.47;;;;;;;16.15;63.39;100952.66;10383807;28;20041;-56
2021/08/25 01:13:35;;;;;;;4.60;2.78;;;;;;;16.08;63.35;100940.81;10384488;28;20157;-56
2021/08/25 01:18:38;;;;;;;3.92;2.53;;;;;;;16.07;63.41;100939.97;10400057;28;20126;-57
2021/08/25 01:23:43;;;;;;;5.30;2.72;;;;;;;16.02;63.43;100936.03;10387514;28;20049;-56
2021/08/25 01:28:51;;;;;;;3.55;2.33;;;;;;;15.89;63.42;100925.56;10382704;28;20069;-57
2021/08/25 01:34:11;;;;;;;5.05;2.92;;;;;;;15.82;63.82;100914.56;10385655;28;20041;-57
2021/08/25 01:39:12;;;;;;;4.50;2.72;;;;;;;15.90;63.36;100921.91;10382734;28;20120;-57
2021/08/25 01:44:13;;;;;;;5.43;2.35;;;;;;;15.89;63.42;100926.41;10385092;22;20134;-60
2021/08/25 01:49:15;;;;;;;3.75;2.70;;;;;;;15.83;63.39;100916.22;10339893;28;20141;-61
2021/08/25 01:54:16;;;;;;;5.55;2.97;;;;;;;15.74;63.65;100917.88;10343030;28;20161;-62
2021/08/25 01:59:18;;;;;;;4.88;2.50;;;;;;;15.73;63.58;100918.03;10346253;28;20113;-60
2021/08/25 02:04:19;;;;;;;4.03;2.53;;;;;;;15.69;63.65;100914.78;10342305;28;20133;-60
2021/08/25 02:09:22;;;;;;;3.00;2.45;;;;;;;15.65;63.90;100908.00;10340848;28;20555;-61
2021/08/25 02:14:23;;;;;;;4.47;2.60;;;;;;;15.50;64.10;100907.56;10338949;28;20050;-60
2021/08/25 02:19:25;;;;;;;5.90;2.83;;;;;;;15.23;65.15;100908.25;10336452;28;20158;-60
2021/08/25 02:24:26;;;;;;;3.90;2.58;;;;;;;15.23;64.88;100904.72;10331051;28;21516;-62
2021/08/25 02:29:27;;;;;;;5.15;2.72;;;;;;;15.18;65.03;100908.66;10329661;28;20125;-62
2021/08/25 02:34:29;;;;;;;3.70;2.53;;;;;;;15.24;64.80;100901.03;10330184;28;20188;-61
2021/08/25 02:39:30;;;;;;;4.72;2.80;;;;;;;15.20;64.71;100898.63;10334416;28;20132;-60
2021/08/25 02:44:32;;;;;;;4.28;2.80;;;;;;;15.18;64.93;100894.41;10340294;28;20108;-61
2021/08/25 02:49:33;;;;;;;3.13;1.80;;;;;;;15.19;64.66;100890.72;10335585;28;20157;-60
2021/08/25 02:54:34;;;;;;;5.40;2.70;;;;;;;15.03;65.17;100884.06;10334022;28;20138;-61
2021/08/25 02:59:36;;;;;;;2.88;2.15;;;;;;;15.00;65.24;100876.28;10334697;28;20145;-60
2021/08/25 03:04:37;;;;;;;3.78;2.10;;;;;;;15.07;64.61;100870.38;10334547;28;20149;-63
2021/08/25 03:09:38;;;;;;;3.35;2.38;;;;;;;15.11;64.61;100866.44;10337635;28;20444;-63
2021/08/25 03:14:41;;;;;;;4.20;2.63;;;;;;;15.09;64.56;100863.91;10339966;28;20143;-62
2021/08/25 03:19:42;;;;;;;4.32;2.33;;;;;;;15.02;64.30;100857.38;10338707;28;20050;-63
2021/08/25 03:24:44;;;;;;;4.93;2.88;;;;;;;14.88;65.04;100855.09;10333182;28;20479;-61
2021/08/25 03:29:45;;;;;;;3.45;2.65;;;;;;;14.98;64.89;100850.59;10340825;28;20077;-60
2021/08/25 03:34:46;;;;;;;3.47;2.20;;;;;;;14.98;64.87;100850.59;10333409;28;20051;-61
2021/08/25 03:39:48;;;;;;;3.72;2.42;;;;;;;14.90;64.95;100843.25;10339585;28;20078;-63
2021/08/25 03:44:49;;;;;;;3.67;2.42;;;;;;;14.92;64.79;100843.09;10339994;28;20152;-62
2021/08/25 03:49:51;;;;;;;5.82;2.90;;;;;;;14.93;64.72;100836.78;10335793;28;20064;-60
2021/08/25 03:54:52;;;;;;;3.17;2.00;;;;;;;14.88;64.70;100830.97;10337457;28;20141;-60
2021/08/25 03:59:54;;;;;;;3.35;2.20;;;;;;;14.87;64.50;100815.88;10335589;28;20105;-61
2021/08/25 04:04:55;;;;;;;4.43;1.90;;;;;;;14.87;64.40;100814.03;10330395;28;20072;-60
2021/08/25 04:09:57;;;;;;;5.47;2.17;;;;;;;14.83;64.70;100826.00;10335553;28;20064;-61
2021/08/25 04:14:58;;;;;;;3.72;2.58;;;;;;;14.84;64.64;100828.56;10349115;28;20050;-63
2021/08/25 04:20:00;;;;;;;3.05;1.90;;;;;;;14.84;65.07;100839.28;10331409;28;20136;-61
2021/08/25 04:25:02;;;;;;;4.30;2.40;;;;;;;14.83;64.88;100831.38;10332701;28;20081;-60
2021/08/25 04:30:04;;;;;;;4.88;2.42;;;;;;;14.82;64.92;100830.53;10331638;28;20058;-62
2021/08/25 04:35:06;;;;;;;4.63;2.45;;;;;;;14.65;64.95;100836.53;10330272;28;20096;-60
2021/08/25 04:40:07;;;;;;;3.47;2.28;;;;;;;14.59;65.43;100835.25;10334849;28;20703;-60
2021/08/25 04:45:09;;;;;;;2.78;1.92;;;;;;;14.64;65.04;100833.03;10312735;28;20128;-61
2021/08/25 04:50:11;;;;;;;6.22;2.05;;;;;;;14.47;65.66;100834.50;10320445;28;20125;-63
2021/08/25 04:55:13;;;;;;;3.85;2.85;;;;;;;14.45;65.61;100832.91;10318049;28;20053;-61
2021/08/25 05:00:14;;;;;;;5.70;2.55;;;;;;;14.46;65.51;100835.47;10318320;28;20172;-60
2021/08/25 05:05:16;;;;;;;3.95;2.42;;;;;;;14.59;65.42;100826.34;10331806;28;20061;-61
2021/08/25 05:10:18;;;;;;;4.57;2.55;;;;;;;14.65;64.91;100829.38;10316997;28;20128;-61
2021/08/25 05:15:19;;;;;;;5.18;3.15;;;;;;;14.60;65.66;100825.38;10318690;28;20247;-61
2021/08/25 05:20:20;;;;;;;3.83;2.30;;;;;;;14.69;64.72;100834.47;10317565;28;20169;-62
2021/08/25 05:25:22;;;;;;;4.60;2.63;;;;;;;14.81;64.49;100834.19;10316393;28;20536;-61
2021/08/25 05:30:23;;;;;;;2.33;1.73;;;;;;;14.82;64.87;100833.22;10317834;28;20149;-61
2021/08/25 05:35:25;;;;;;;4.43;2.60;;;;;;;14.78;64.42;100831.78;10316800;28;20556;-62
2021/08/25 05:40:26;;;;;;;4.65;2.72;;;;;;;14.74;64.25;100833.06;10316392;28;20219;-62
2021/08/25 05:45:28;;;;;;;3.20;2.05;;;;;;;14.74;65.00;100838.44;10335189;28;20062;-62
2021/08/25 05:50:29;;;;;;;3.38;2.35;;;;;;;14.91;64.10;100836.06;10323655;28;20050;-62
2021/08/25 05:55:30;;;;;;;6.22;2.80;;;;;;;15.48;67.75;100845.16;10321692;28;20054;-57
2021/08/25 06:00:32;;;;;;;3.83;1.98;;;;;;;15.51;62.28;100839.50;10321789;28;20068;-62
2021/08/25 06:05:35;;;;;;;4.28;2.63;;;;;;;15.49;62.29;100832.59;10324802;28;20148;-62
2021/08/25 06:10:37;;;;;;;4.63;2.95;;;;;;;15.51;63.08;100834.16;10321052;28;20465;-62
2021/08/25 06:15:38;;;;;;;2.97;1.85;;;;;;;15.42;62.70;100835.00;10323598;28;20053;-62
2021/08/25 06:20:40;;;;;;;3.28;2.80;;;;;;;15.71;62.28;100837.66;10327076;28;20113;-67
2021/08/25 06:25:41;;;;;;;4.50;2.63;;;;;;;15.86;62.94;100840.78;10340923;28;20056;-62
2021/08/25 06:30:43;;;;;;;3.72;2.75;;;;;;;16.03;62.36;100835.66;10329829;28;20120;-62
2021/08/25 06:35:44;;;;;;;5.18;2.55;;;;;;;16.12;61.09;100844.69;10327266;28;20056;-62
2021/08/25 06:40:46;;;;;;;3.53;2.63;;;;;;;16.28;61.13;100838.72;10328202;28;20049;-62
2021/08/25 06:45:47;;;;;;;4.72;2.75;;;;;;;16.50;61.09;100840.16;10339768;28;20583;-61
2021/08/25 06:50:48;;;;;;;3.55;2.03;;;;;;;16.72;60.30;100841.63;10328915;28;20503;-61
2021/08/25 06:55:50;;;;;;;5.45;2.33;;;;;;;16.88;60.24;100855.31;10326991;28;20543;-61
2021/08/25 07:00:52;;;;;;;3.85;2.35;;;;;;;17.06;58.97;100849.13;10328348;28;20050;-65
2021/08/25 07:05:53;;;;;;;3.47;2.53;;;;;;;17.37;60.25;100835.31;10326646;28;20200;-61
2021/08/25 07:10:55;;;;;;;3.17;1.92;;;;;;;17.55;59.16;100833.47;10326808;28;20112;-56
2021/08/25 07:15:56;;;;;;;5.25;2.25;;;;;;;17.79;58.33;100834.66;10338806;28;20042;-55
2021/08/25 07:20:57;;;;;;;4.68;2.20;;;;;;;17.93;57.59;100826.03;10325361;28;20050;-62
2021/08/25 07:25:59;;;;;;;4.95;2.05;;;;;;;18.00;56.99;100819.03;10326820;28;20053;-63
2021/08/25 07:31:00;;;;;;;4.43;2.85;;;;;;;17.88;57.10;100820.28;10340613;28;20126;-63
2021/08/25 07:36:02;;;;;;;2.97;2.00;;;;;;;18.02;58.19;100818.88;10325125;28;20058;-62
2021/08/25 07:41:03;;;;;;;3.45;2.08;;;;;;;18.14;57.25;100819.44;10325538;28;20444;-62
2021/08/25 07:46:05;;;;;;;3.70;2.20;;;;;;;18.41;57.11;100817.56;10321884;28;20141;-61
2021/08/25 07:51:10;;;;;;;3.90;2.28;;;;;;;18.54;56.84;100826.06;10325199;28;20046;-61
2021/08/25 07:56:11;;;;;;;2.63;1.92;;;;;;;18.90;56.19;100823.19;10323724;28;20045;-62
2021/08/25 08:01:13;;;;;;;3.53;2.03;;;;;;;18.92;55.76;100815.78;10324543;28;20196;-61
2021/08/25 08:06:18;;;;;;;4.32;2.35;;;;;;;19.14;55.38;100797.25;10321726;28;20104;-64
2021/08/25 08:11:20;;;;;;;2.97;1.70;;;;;;;19.29;55.21;100803.72;10321851;28;20137;-62
2021/08/25 08:16:22;;;;;;;3.97;2.30;;;;;;;19.65;55.17;100800.69;10323393;28;20062;-65
2021/08/25 08:21:25;;;;;;;3.83;2.38;;;;;;;19.95;54.30;100801.84;10324874;28;20057;-65
2021/08/25 08:26:28;;;;;;;3.35;2.08;;;;;;;20.31;51.71;100811.38;10323585;28;20144;-61
2021/08/25 08:31:32;;;;;;;2.72;1.88;;;;;;;20.35;52.07;100807.31;10322821;28;20333;-64
2021/08/25 08:36:33;;;;;;;5.15;1.95;;;;;;;20.69;49.24;100800.78;10318190;28;20046;-65
2021/08/25 08:41:34;;;;;;;4.10;2.25;;;;;;;20.94;51.11;100806.06;10322744;28;20122;-62
2021/08/25 08:46:38;;;;;;;3.47;2.75;;;;;;;21.35;49.96;100792.25;10318077;28;20046;-63
2021/08/25 08:51:40;;;;;;;5.97;2.60;;;;;;;21.79;49.13;100794.25;10322775;28;20049;-62
2021/08/25 08:56:42;;;;;;;3.47;2.05;;;;;;;22.15;47.84;100790.84;10323967;28;20050;-63
2021/08/25 09:01:44;;;;;;;3.20;2.00;;;;;;;22.44;47.00;100785.63;10322629;28;20142;-64
2021/08/25 09:06:46;;;;;;;2.60;2.00;;;;;;;22.41;47.82;100786.84;10322545;28;20414;-65
2021/08/25 09:11:54;;;;;;;3.28;2.42;;;;;;;22.48;45.82;100781.53;10322410;28;20256;-64
2021/08/25 09:17:02;;;;;;;3.38;2.38;;;;;;;22.55;46.37;100768.88;10322764;28;20038;-63
2021/08/25 09:22:18;;;;;;;5.72;2.00;;;;;;;23.19;45.53;100754.56;10328166;28;20053;-62
2021/08/25 09:27:21;;;;;;;3.40;2.60;;;;;;;23.70;43.98;100758.94;10329431;28;20046;-63
2021/08/25 09:32:24;;;;;;;3.70;2.20;;;;;;;23.83;43.77;100766.38;10329483;28;20133;-64
2021/08/25 09:37:28;;;;;;;3.47;2.28;;;;;;;23.87;42.97;100764.97;10328735;28;20149;-64
2021/08/25 09:42:42;;;;;;;3.67;2.35;;;;;;;24.34;42.15;100762.50;10329801;28;20064;-63
2021/08/25 09:47:47;;;;;;;3.33;2.58;;;;;;;24.25;43.07;100753.69;10328822;28;20120;-64
2021/08/25 09:52:48;;;;;;;3.53;2.60;;;;;;;24.82;40.89;100746.16;10329523;28;20164;-63
2021/08/25 09:57:50;;;;;;;3.45;3.03;;;;;;;25.72;40.03;100740.38;10326545;28;20994;-63
2021/08/25 10:02:52;;;;;;;4.95;2.72;;;;;;;26.32;38.32;100727.66;10326157;28;20130;-63
2021/08/25 10:07:54;;;;;;;5.13;3.00;;;;;;;26.79;36.03;100726.38;10327121;28;20132;-63
2021/08/25 10:12:55;;;;;;;4.63;3.05;;;;;;;26.63;36.04;100719.53;10327650;28;20144;-63
2021/08/25 10:17:59;;;;;;;4.22;2.80;;;;;;;25.92;37.72;100713.06;10341698;28;20060;-63
2021/08/25 10:23:02;;;;;;;3.78;2.53;;;;;;;26.46;35.20;100711.00;10327533;28;20045;-64
2021/08/25 10:28:08;;;;;;;4.85;2.67;;;;;;;29.87;29.94;100697.97;10325579;28;20064;-64
2021/08/25 10:33:11;;;;;;;3.47;2.53;;;;;;;29.08;31.31;100695.56;10325609;28;20132;-63
2021/08/25 10:38:16;;;;;;;2.53;1.80;;;;;;;29.79;29.20;100690.09;10339905;28;20502;-63
2021/08/25 10:43:36;;;;;;;4.65;2.50;;;;;;;29.49;28.76;100682.03;10324264;28;20187;-63
2021/08/25 10:48:43;;;;;;;3.53;2.08;;;;;;;30.47;29.04;100669.28;10338527;28;20562;-63
2021/08/25 10:53:44;;;;;;;2.53;2.28;;;;;;;34.61;23.03;100665.06;10326343;28;20542;-64
2021/08/25 10:58:47;;;;;;;4.28;2.72;;;;;;;38.01;19.10;100655.69;10325792;28;20184;-65
2021/08/25 11:03:50;;;;;;;3.10;2.60;;;;;;;37.84;18.21;100645.09;10323539;28;20077;-66
2021/08/25 11:08:51;;;;;;;2.78;2.45;;;;;;;39.83;17.08;100639.28;10323348;28;20287;-64
2021/08/25 11:13:52;;;;;;;3.38;2.20;;;;;;;36.17;20.49;100634.06;10325263;28;20053;-65
2021/08/25 11:18:54;;;;;;;2.60;2.30;;;;;;;38.35;18.01;100618.56;10320549;28;20157;-65
2021/08/25 11:23:57;;;;;;;2.67;2.42;;;;;;;35.70;20.17;100619.56;10324882;28;20232;-65
2021/08/25 11:28:58;;;;;;;3.58;2.60;;;;;;;34.24;22.05;100616.34;10327059;28;20108;-64
2021/08/25 11:34:00;;;;;;;2.83;2.10;;;;;;;30.89;25.60;100599.41;10325809;28;20137;-65
2021/08/25 11:39:11;;;;;;;4.90;2.40;;;;;;;29.79;27.77;100602.31;10323821;28;20133;-65
2021/08/25 11:44:14;;;;;;;4.45;2.40;;;;;;;34.59;22.13;100584.34;10322807;28;20037;-64
2021/08/25 11:49:15;;;;;;;4.25;2.22;;;;;;;39.79;17.17;100582.53;10321146;28;20554;-66
2021/08/25 11:54:17;;;;;;;3.10;2.30;;;;;;;38.54;17.79;100574.03;10339431;28;20061;-64
2021/08/25 11:59:18;;;;;;;2.80;2.22;;;;;;;40.06;16.33;100564.94;10323276;28;20318;-64
2021/08/25 12:04:29;;;;;;;5.88;2.53;;;;;;;40.55;16.16;100567.97;10326239;28;20128;-65
2021/08/25 12:09:31;;;;;;;3.55;2.47;;;;;;;38.57;17.67;100548.41;10323988;28;20042;-65
2021/08/25 12:14:49;;;;;;;3.33;2.17;;;;;;;33.81;22.46;100556.59;10326982;28;20125;-66
2021/08/25 12:19:59;;;;;;;3.13;1.70;;;;;;;33.56;22.58;100548.19;10326292;28;20042;-65
2021/08/25 12:25:00;;;;;;;3.83;2.17;;;;;;;33.12;23.56;100546.59;10333293;28;20132;-65
2021/08/25 12:30:11;;;;;;;3.05;2.28;;;;;;;31.80;25.53;100551.47;10328883;28;20139;-64
2021/08/25 12:35:23;;;;;;;3.60;1.98;;;;;;;32.18;25.03;100537.84;10334263;28;20147;-65
2021/08/25 12:40:24;;;;;;;3.75;2.67;;;;;;;32.16;25.47;100534.53;10328591;28;20140;-65
2021/08/25 12:45:26;;;;;;;4.25;2.83;;;;;;;32.04;25.45;100515.41;10340988;28;20065;-65
2021/08/25 12:50:27;;;;;;;2.85;1.88;;;;;;;31.68;25.25;100513.09;10340250;28;20053;-64
2021/08/25 12:55:29;;;;;;;3.03;2.33;;;;;;;30.76;26.91;100489.84;10345903;28;20139;-64
2021/08/25 13:00:36;;;;;;;3.13;2.15;;;;;;;30.74;26.24;100486.53;10345104;28;20046;-66
2021/08/25 13:05:38;;;;;;;2.88;2.42;;;;;;;30.11;26.25;100476.44;10329183;28;20420;-67
2021/08/25 13:10:40;;;;;;;3.60;1.90;;;;;;;29.83;27.81;100465.50;10326625;28;20062;-67
2021/08/25 13:15:43;;;;;;;2.70;1.92;;;;;;;30.13;26.63;100470.69;10324457;28;20264;-65
2021/08/25 13:20:45;;;;;;;2.92;2.15;;;;;;;30.40;26.35;100461.81;10324331;28;20168;-67
2021/08/25 13:25:55;;;;;;;3.30;2.25;;;;;;;30.61;25.80;100461.09;10326911;28;20066;-66
2021/08/25 13:30:57;;;;;;;5.20;2.67;;;;;;;30.06;26.08;100450.84;10326233;28;20144;-66
2021/08/25 13:35:58;;;;;;;4.07;1.98;;;;;;;29.89;26.48;100435.19;10328103;28;20183;-66
2021/08/25 13:41:00;;;;;;;2.75;2.00;;;;;;;29.49;27.06;100438.81;10328841;28;20113;-64
2021/08/25 13:46:01;;;;;;;3.03;1.73;;;;;;;29.06;27.40;100427.22;10349681;22;20041;-55
2021/08/25 13:51:03;;;;;;;3.50;2.20;;;;;;;28.68;27.63;100419.56;10348305;28;20182;-55
2021/08/25 13:56:05;;;;;;;;;;;;;;;28.34;28.33;100416.56;10349111;28;20792;-57
2021/08/25 14:01:06;;;;;;;2.38;2.15;;;;;;;27.72;29.48;100412.28;10347079;28;19932;-56
2021/08/25 14:06:08;;;;;;;3.63;2.60;;;;;;;27.37;29.59;100407.50;10343689;28;20140;-55
2021/08/25 14:11:11;;;;;;;3.03;2.40;;;;;;;27.27;29.87;100412.66;10352704;28;20084;-54
2021/08/25 14:16:12;;;;;;;4.20;2.38;;;;;;;27.19;30.17;100410.22;10345730;28;20046;-55
2021/08/25 14:21:18;;;;;;;3.33;2.10;;;;;;;27.11;30.19;100393.13;10349886;28;20707;-55
2021/08/25 14:26:19;;;;;;;3.15;2.15;;;;;;;26.67;30.28;100386.91;10363737;28;20087;-55
2021/08/25 14:31:21;;;;;;;4.25;2.45;;;;;;;26.63;30.69;100377.44;10348737;28;21719;-56
2021/08/25 14:36:22;;;;;;;4.57;2.00;;;;;;;26.37;30.75;100362.19;10347758;28;20053;-55
2021/08/25 14:41:24;;;;;;;3.75;2.45;;;;;;;26.26;30.69;100353.69;10344155;28;20056;-55
2021/08/25 14:46:26;;;;;;;3.70;2.35;;;;;;;25.60;31.17;100346.88;10349299;28;20053;-54
2021/08/25 14:51:27;;;;;;;5.25;2.47;;;;;;;25.49;32.16;100347.56;10336394;28;20054;-56
2021/08/25 14:56:29;;;;;;;3.38;2.35;;;;;;;25.12;32.36;100331.03;10359228;28;20192;-55
2021/08/25 15:01:30;;;;;;;3.50;2.20;;;;;;;25.15;32.99;100336.03;10344223;28;20109;-54
2021/08/25 15:06:36;;;;;;;3.15;2.10;;;;;;;25.17;33.56;100326.56;10343821;28;20067;-53
2021/08/25 15:11:38;;;;;;;4.45;2.50;;;;;;;24.93;33.93;100327.34;10342325;28;20463;-55
2021/08/25 15:16:39;;;;;;;3.42;2.33;;;;;;;24.80;33.57;100320.03;10336943;28;20594;-55
2021/08/25 15:21:40;;;;;;;3.25;2.40;;;;;;;24.55;34.38;100304.41;10344991;28;20137;-52
2021/08/25 15:26:42;;;;;;;4.43;2.22;;;;;;;24.61;34.67;100295.44;10345103;28;20179;-54
2021/08/25 15:31:48;;;;;;;4.60;2.83;;;;;;;24.60;34.17;100296.47;10359763;28;20089;-54
2021/08/25 15:36:50;;;;;;;3.88;2.72;;;;;;;24.50;33.88;100279.72;10339004;28;20148;-56
2021/08/25 15:41:52;;;;;;;3.63;2.20;;;;;;;24.45;34.54;100284.97;10339234;28;20057;-55
2021/08/25 15:46:54;;;;;;;4.00;2.35;;;;;;;24.50;34.68;100283.31;10338829;28;20462;-55
2021/08/25 15:51:55;;;;;;;4.60;2.22;;;;;;;24.44;34.59;100275.16;10340863;28;20052;-55
2021/08/25 15:56:57;;;;;;;3.47;2.15;;;;;;;24.20;34.46;100255.78;10343381;28;20053;-55
2021/08/25 16:01:58;;;;;;;3.47;2.25;;;;;;;24.31;35.36;100265.97;10342702;28;20057;-56
2021/08/25 16:07:00;;;;;;;3.55;2.72;;;;;;;24.29;35.62;100262.66;10342414;28;20148;-56
2021/08/25 16:12:01;;;;;;;5.70;3.22;;;;;;;24.25;35.44;100261.41;10337248;28;20141;-55
2021/08/25 16:17:03;;;;;;;2.58;2.10;;;;;;;24.14;35.34;100256.59;10339829;28;20145;-55
2021/08/25 16:22:04;;;;;;;3.10;2.10;;;;;;;24.13;35.68;100246.81;10333171;28;20194;-54
2021/08/25 16:27:07;;;;;;;4.22;2.60;;;;;;;24.07;35.50;100236.78;10326927;28;20477;-55
2021/08/25 16:32:08;;;;;;;4.60;2.50;;;;;;;24.09;35.64;100234.66;10337834;28;20045;-55
2021/08/25 16:37:10;;;;;;;3.75;2.60;;;;;;;23.93;35.92;100242.25;10340652;28;20069;-55
2021/08/25 16:42:11;;;;;;;4.78;2.03;;;;;;;23.84;35.75;100235.31;10335286;28;20140;-55
2021/08/25 16:47:12;;;;;;;3.90;2.72;;;;;;;23.86;36.19;100225.09;10337923;28;20574;-55
2021/08/25 16:52:14;;;;;;;4.47;2.30;;;;;;;23.86;36.13;100214.22;10332034;28;20542;-55
2021/08/25 16:57:15;;;;;;;4.97;3.22;;;;;;;23.60;36.38;100202.31;10336060;28;20129;-55
2021/08/25 17:02:17;;;;;;;5.53;2.88;;;;;;;23.44;36.49;100197.31;10334321;28;20112;-55
2021/08/25 17:07:19;;;;;;;5.30;3.25;;;;;;;23.52;36.81;100205.25;10337540;28;20127;-55
2021/08/25 17:12:22;;;;;;;5.57;3.75;;;;;;;23.45;37.14;100197.09;10335902;28;20161;-55
2021/08/25 17:17:24;;;;;;;62.65;29.95;;;;;;;23.53;37.81;100201.50;10335014;28;20079;-54
2021/08/25 17:22:27;;;;;;;41.55;17.42;;;;;;;23.45;38.38;100191.69;10335576;28;20124;-54
2021/08/25 17:27:29;;;;;;;43.05;21.13;;;;;;;23.37;38.72;100183.72;10336445;28;20471;-53
2021/08/25 17:32:30;;;;;;;16.80;8.52;;;;;;;23.28;38.28;100185.84;10336586;28;20058;-53
2021/08/25 17:37:31;;;;;;;9.70;4.93;;;;;;;23.13;38.64;100177.03;10329164;28;21783;-56
2021/08/25 17:42:33;;;;;;;11.85;7.13;;;;;;;23.11;38.82;100192.72;10347215;28;20064;-54
2021/08/25 17:47:34;;;;;;;12.88;6.75;;;;;;;23.05;39.65;100185.38;10340534;28;20060;-48
2021/08/25 17:52:38;;;;;;;8.15;5.40;;;;;;;22.95;40.12;100192.03;10335336;28;20088;-47
2021/08/25 17:57:40;;;;;;;6.22;5.45;;;;;;;22.71;39.84;100184.47;10332734;28;20108;-49
2021/08/25 18:02:42;;;;;;;6.73;5.53;;;;;;;22.57;40.48;100189.84;10337259;28;20137;-52
2021/08/25 18:07:43;;;;;;;4.55;3.72;;;;;;;22.49;40.33;100187.34;10329852;28;20594;-48
2021/08/25 18:12:46;;;;;;;5.68;4.18;;;;;;;22.46;40.85;100186.88;10331991;28;20622;-48
2021/08/25 18:17:48;;;;;;;4.70;3.67;;;;;;;22.48;40.67;100174.81;10339122;28;20143;-48
2021/08/25 18:22:49;;;;;;;6.68;4.93;;;;;;;22.44;41.50;100187.09;10340502;28;20144;-50
2021/08/25 18:27:51;;;;;;;5.32;3.97;;;;;;;22.32;41.32;100175.16;10338929;28;20423;-50
2021/08/25 18:32:52;;;;;;;5.65;4.38;;;;;;;22.19;41.69;100179.47;10334853;28;20152;-46
2021/08/25 18:37:54;;;;;;;5.68;4.45;;;;;;;22.12;42.50;100181.31;10331437;28;20053;-49
2021/08/25 18:42:57;;;;;;;6.18;4.25;;;;;;;22.04;43.11;100186.91;10317300;28;20131;-49
2021/08/25 18:47:58;;;;;;;5.07;3.85;;;;;;;21.91;43.14;100174.09;10339652;28;20144;-49
2021/08/25 18:53:00;;;;;;;4.93;3.80;;;;;;;21.95;43.77;100180.81;10340503;28;20160;-48
2021/08/25 18:58:01;;;;;;;4.88;3.88;;;;;;;21.94;44.10;100175.59;10335148;28;20056;-48
2021/08/25 19:03:03;;;;;;;5.82;4.38;;;;;;;21.75;44.53;100169.84;10327181;28;20470;-50
2021/08/25 19:08:05;;;;;;;5.15;4.18;;;;;;;21.77;45.00;100153.38;10315609;28;20454;-48
2021/08/25 19:13:06;;;;;;;5.90;3.55;;;;;;;21.82;44.22;100151.75;10337365;28;20100;-49
2021/08/25 19:18:08;;;;;;;5.00;4.10;;;;;;;21.69;44.03;100141.69;10343567;28;20238;-47
2021/08/25 19:23:10;;;;;;;5.45;3.63;;;;;;;21.65;43.80;100136.88;10327210;28;20203;-47
2021/08/25 19:28:12;;;;;;;7.03;3.92;;;;;;;21.58;44.57;100141.41;10338113;28;20170;-49
2021/08/25 19:33:13;;;;;;;5.28;3.60;;;;;;;21.46;44.35;100122.97;10342207;28;20133;-48
2021/08/25 19:38:15;;;;;;;4.47;3.88;;;;;;;21.48;45.00;100136.31;10339370;28;20129;-49
2021/08/25 19:43:16;;;;;;;5.55;4.03;;;;;;;21.56;44.64;100138.91;10331006;28;20129;-50
2021/08/25 19:48:18;;;;;;;6.00;3.90;;;;;;;21.53;44.71;100139.31;10332936;28;20123;-46
2021/08/25 19:53:19;;;;;;;4.80;4.05;;;;;;;21.41;44.66;100114.63;10333548;28;20499;-49
2021/08/25 19:58:20;;;;;;;5.43;3.97;;;;;;;21.37;45.47;100133.09;10337731;28;20605;-48
2021/08/25 20:03:24;;;;;;;6.05;4.13;;;;;;;21.31;45.05;100131.19;10337347;23;20184;-60
2021/08/25 20:08:26;;;;;;;8.70;4.72;;;;;;;21.22;45.52;100118.00;10350652;28;20143;-55
2021/08/25 20:13:27;;;;;;;6.22;4.03;;;;;;;21.11;45.78;100125.63;10346718;28;20060;-54
2021/08/25 20:18:29;;;;;;;8.98;4.03;;;;;;;21.12;46.42;100129.16;10347500;28;20061;-55
2021/08/25 20:23:30;;;;;;;5.57;3.38;;;;;;;21.13;46.30;100115.44;10347601;28;20048;-62
2021/08/25 20:28:32;;;;;;;5.38;3.72;;;;;;;21.22;46.55;100112.59;10341647;28;20042;-63
2021/08/25 20:33:33;;;;;;;7.30;4.40;;;;;;;21.07;46.84;100118.09;10346927;28;20129;-63
2021/08/25 20:38:34;;;;;;;5.35;3.95;;;;;;;20.95;46.42;100115.09;10347567;28;20490;-61
2021/08/25 20:43:36;;;;;;;6.30;4.20;;;;;;;20.72;48.59;100093.66;10344366;28;20096;-62
2021/08/25 20:48:38;;;;;;;6.40;4.18;;;;;;;20.70;48.47;100101.94;10359439;28;20195;-61
2021/08/25 20:53:40;;;;;;;6.43;3.90;;;;;;;20.62;48.74;100104.75;10342033;28;20413;-62
2021/08/25 20:58:42;;;;;;;6.60;4.17;;;;;;;20.61;48.46;100108.50;10344339;28;20138;-62
2021/08/25 21:03:43;;;;;;;6.45;4.78;;;;;;;20.57;49.58;100102.63;10342268;28;20140;-63
2021/08/25 21:08:45;;;;;;;5.93;4.55;;;;;;;20.52;49.21;100093.44;10345048;28;20497;-63
2021/08/25 21:13:47;;;;;;;5.57;4.78;;;;;;;20.52;49.66;100093.44;10345192;28;20191;-63
2021/08/25 21:18:48;;;;;;;6.22;4.70;;;;;;;20.43;49.26;100090.00;10350090;28;20067;-63
2021/08/25 21:23:50;;;;;;;6.05;3.92;;;;;;;20.33;49.00;100105.69;10349664;28;20042;-64
2021/08/25 21:28:52;;;;;;;5.43;4.10;;;;;;;20.20;50.37;100106.41;10347075;28;20152;-63
2021/08/25 21:33:53;;;;;;;5.45;4.15;;;;;;;20.12;49.83;100102.78;10349345;28;20073;-64
2021/08/25 21:38:54;;;;;;;6.40;4.50;;;;;;;20.10;51.09;100104.84;10354770;28;20122;-63
2021/08/25 21:43:56;;;;;;;5.32;3.97;;;;;;;20.03;50.93;100090.41;10353625;28;20772;-62
2021/08/25 21:48:57;;;;;;;5.90;4.55;;;;;;;20.04;50.34;100102.91;10355472;28;20045;-62
2021/08/25 21:53:59;;;;;;;7.43;4.72;;;;;;;19.83;51.70;100092.88;10350595;28;20061;-65
2021/08/25 21:59:01;;;;;;;7.10;4.28;;;;;;;19.82;51.00;100087.66;10347886;28;20173;-63
2021/08/25 22:04:02;;;;;;;5.95;3.70;;;;;;;19.61;49.72;100075.72;10349487;28;20050;-62
2021/08/25 22:09:06;;;;;;;6.28;3.95;;;;;;;19.51;51.26;100064.34;10349041;28;20755;-63
2021/08/25 22:14:07;;;;;;;5.40;3.72;;;;;;;19.55;50.75;100062.97;10346528;28;20581;-62
2021/08/25 22:19:08;;;;;;;6.85;4.10;;;;;;;19.59;50.48;100050.75;10343017;28;20148;-63
2021/08/25 22:24:10;;;;;;;6.18;4.07;;;;;;;19.57;50.49;100037.44;10362547;28;20124;-63
2021/08/25 22:29:11;;;;;;;6.28;4.03;;;;;;;19.53;50.25;100025.38;10369800;28;20138;-63
2021/08/25 22:34:13;;;;;;;6.97;3.72;;;;;;;19.57;50.60;100015.00;10373038;28;20136;-61
2021/08/25 22:39:14;;;;;;;6.72;4.30;;;;;;;19.56;50.75;100011.50;10376833;28;20136;-61
2021/08/25 22:44:15;;;;;;;4.13;3.15;;;;;;;19.48;51.07;99999.94;10371183;28;20531;-60
2021/08/25 22:49:17;;;;;;;7.07;3.90;;;;;;;19.47;51.09;100004.53;10380371;28;20235;-61
2021/08/25 22:54:19;;;;;;;5.50;3.60;;;;;;;19.41;51.51;99994.44;10380859;28;20205;-63
2021/08/25 22:59:20;;;;;;;5.68;3.28;;;;;;;19.31;51.81;99981.25;10378362;28;20069;-61
2021/08/25 23:04:21;;;;;;;5.85;4.00;;;;;;;19.39;51.58;99997.34;10378463;28;20136;-63
2021/08/25 23:09:23;;;;;;;6.90;3.75;;;;;;;19.44;51.66;99996.78;10381213;28;20207;-63